KPIT

Pittsburgh International Airport

Pittsburgh, Pennsylvania, USA
METAR KPIT 220351Z 00000KT 10SM FEW250 M16/M18 A3054 RMK AO2 SLP382 T11611183
Observed Flight Rules
Jan-22 @ 03:51 UTC (49 minutes ago) Visual Flight Rules
Visibility Clouds
10 miles
  • Few at 25,000' AGL
Temperatures Readings
Current -16°C / 3°F
Dewpoint -18°C / -0°F
Humidity 85%
Altimeter 30.54" Hg
Pressure 1038.2 hPa
Elevation 357
METAR KPIT 220351Z 00000KT 10SM FEW250 M16/M18 A3054 RMK AO2 SLP382 T11611183
Observed Flight Rules
Jan-22 @ 03:51 UTC
(49 minutes ago)
VFR
Clouds
  • Few at 25,000' AGL
Temperature Dewpoint
-16°C / 3°F -18°C / -0°F
Humidity Altimeter Pressure
85% 30.54" Hg 1038.2 hPa